Time;durP1;ratioP1;P1;durP2;ratioP2;P2;SDS_P1;SDS_P2;PMS_P1;PMS_P2;Temp;Humidity;BMP_temperature;BMP_pressure;BME280_temperature;BME280_humidity;BME280_pressure;Samples;Min_cycle;Max_cycle;Signal;HPM_P1;HPM_P2
2022/12/27 00:01:17;;;;;;;13.63;3.22;;;;;;;-143.48;84.34;118439.88;5053607;28;20024;-69
2022/12/27 00:03:43;;;;;;;11.18;3.05;;;;;;;-143.48;84.55;118439.88;5053696;28;20027;-69
2022/12/27 00:06:12;;;;;;;9.07;2.67;;;;;;;-143.48;84.58;118439.88;5053389;28;20107;-70
2022/12/27 00:08:37;;;;;;;16.58;3.10;;;;;;;-143.48;85.11;118439.88;5053657;28;20444;-69
2022/12/27 00:11:05;;;;;;;11.43;2.92;;;;;;;-143.48;84.85;118439.88;5053664;28;20055;-69
2022/12/27 00:13:30;;;;;;;10.27;2.70;;;;;;;-143.48;84.87;118439.88;5053407;28;20021;-69
2022/12/27 00:16:05;;;;;;;10.65;2.70;;;;;;;-143.48;84.47;118439.88;5053598;28;20051;-70
2022/12/27 00:18:31;;;;;;;17.75;3.17;;;;;;;-143.48;85.05;118439.88;5053602;28;20024;-70
2022/12/27 00:21:00;;;;;;;17.65;3.05;;;;;;;-143.48;85.10;118439.88;5053577;28;20031;-70
2022/12/27 00:23:29;;;;;;;13.27;3.22;;;;;;;-143.48;84.66;118439.88;5053571;28;20473;-69
2022/12/27 00:26:02;;;;;;;8.77;2.53;;;;;;;-143.48;85.11;118439.88;5053398;28;20040;-70
2022/12/27 00:28:32;;;;;;;12.05;2.75;;;;;;;-143.48;84.66;118439.88;5053320;28;20025;-70
2022/12/27 00:30:58;;;;;;;12.98;2.88;;;;;;;-143.48;84.64;118439.88;5035643;28;20488;-70
2022/12/27 00:33:25;;;;;;;9.77;2.72;;;;;;;-143.48;85.06;118439.88;5053293;28;20025;-70
2022/12/27 00:35:50;;;;;;;14.25;2.75;;;;;;;-143.48;84.79;118439.88;5053512;28;20021;-69
2022/12/27 00:38:15;;;;;;;8.00;2.60;;;;;;;-143.48;84.89;118439.88;5053440;28;20035;-69
2022/12/27 00:40:41;;;;;;;12.50;3.20;;;;;;;-143.48;85.44;118439.88;5053341;28;20033;-70
2022/12/27 00:43:06;;;;;;;10.65;2.88;;;;;;;-143.48;84.82;118439.88;5053348;28;20551;-70
2022/12/27 00:45:32;;;;;;;12.20;2.55;;;;;;;-143.48;83.89;118439.88;5053406;28;20024;-70
2022/12/27 00:47:57;;;;;;;15.38;3.40;;;;;;;-143.48;84.31;118439.88;5035512;28;20087;-69
2022/12/27 00:50:22;;;;;;;19.70;3.05;;;;;;;-143.48;83.76;118439.88;5035429;28;20075;-70
2022/12/27 00:52:48;;;;;;;19.90;3.25;;;;;;;-143.48;84.45;118439.88;5053218;28;20431;-70
2022/12/27 00:55:14;;;;;;;8.48;2.65;;;;;;;-143.48;84.23;118439.88;5037547;28;20048;-70
2022/12/27 00:57:39;;;;;;;8.40;2.47;;;;;;;-143.48;84.32;118439.88;5039082;28;20094;-70
2022/12/27 01:00:05;;;;;;;12.13;2.40;;;;;;;-143.48;84.10;118439.88;5057065;28;20473;-70
2022/12/27 01:02:30;;;;;;;9.85;2.50;;;;;;;-143.48;85.02;118439.88;5057061;28;20489;-70
2022/12/27 01:04:56;;;;;;;12.20;2.70;;;;;;;-143.48;85.03;118439.88;5057155;28;20017;-70
2022/12/27 01:07:22;;;;;;;13.77;2.70;;;;;;;-143.48;85.63;118439.88;5057266;28;20032;-70
2022/12/27 01:09:47;;;;;;;13.25;3.15;;;;;;;-143.48;85.32;118439.88;5056820;28;20103;-70
2022/12/27 01:12:12;;;;;;;10.10;2.47;;;;;;;-143.48;84.58;118439.88;5056828;28;20539;-70
2022/12/27 01:14:38;;;;;;;14.68;2.67;;;;;;;-143.48;83.91;118439.88;5056846;28;20029;-69
2022/12/27 01:17:03;;;;;;;11.90;2.45;;;;;;;-143.48;84.06;118439.88;5056806;28;20468;-69
2022/12/27 01:19:28;;;;;;;11.57;2.50;;;;;;;-143.48;84.08;118439.88;5056793;28;20032;-69
2022/12/27 01:21:53;;;;;;;9.25;2.25;;;;;;;-143.48;83.64;118439.88;5056724;28;20029;-70
2022/12/27 01:24:19;;;;;;;10.57;2.60;;;;;;;-143.48;83.64;118439.88;5056570;28;20036;-69
2022/12/27 01:26:44;;;;;;;14.52;3.03;;;;;;;-143.48;83.64;118439.88;5056557;28;20137;-69
2022/12/27 01:29:11;;;;;;;12.15;2.25;;;;;;;-143.48;83.22;118439.88;5056570;28;20460;-69
2022/12/27 01:31:37;;;;;;;18.05;2.95;;;;;;;-143.48;82.69;118439.88;5056798;28;20025;-69
2022/12/27 01:34:03;;;;;;;14.13;3.25;;;;;;;-143.48;82.62;118439.88;5056563;28;20373;-70
2022/12/27 01:36:30;;;;;;;17.73;3.05;;;;;;;-143.48;82.83;118439.88;5056474;28;20033;-70
2022/12/27 01:38:56;;;;;;;9.05;2.13;;;;;;;-143.48;83.77;118439.88;5056328;28;20529;-69
2022/12/27 01:44:50;;;;;;;13.80;2.58;;;;;;;-143.48;84.17;118439.88;5056761;28;20144;-70
2022/12/27 01:47:35;;;;;;;9.43;2.30;;;;;;;-143.48;84.84;118439.88;5038560;28;20048;-69
2022/12/27 01:50:26;;;;;;;10.30;2.40;;;;;;;-143.48;85.27;118439.88;5056338;28;20036;-70
2022/12/27 01:53:00;;;;;;;16.58;2.78;;;;;;;-143.48;85.87;118439.88;5056065;28;20481;-69
2022/12/27 01:55:36;;;;;;;12.77;2.20;;;;;;;-143.48;85.95;118439.88;5056174;28;20032;-69
2022/12/27 01:58:24;;;;;;;12.85;2.83;;;;;;;-143.48;85.58;118439.88;5038058;28;20166;-69
2022/12/27 02:00:50;;;;;;;8.98;2.35;;;;;;;-143.48;85.52;118439.88;5027737;28;20055;-70
2022/12/27 02:03:28;;;;;;;11.25;2.33;;;;;;;-143.48;85.81;118439.88;5055950;28;20021;-70
2022/12/27 02:05:56;;;;;;;8.13;2.13;;;;;;;-143.48;86.15;118439.88;5055067;28;20052;-70
2022/12/27 02:08:34;;;;;;;19.40;2.50;;;;;;;-143.48;86.28;118439.88;5037899;28;20033;-69
2022/12/27 02:11:00;;;;;;;10.02;2.35;;;;;;;-143.48;85.80;118439.88;5055952;28;20040;-69
2022/12/27 02:13:26;;;;;;;16.67;2.20;;;;;;;-143.48;85.88;118439.88;5055729;28;20021;-69
2022/12/27 02:15:51;;;;;;;14.77;2.47;;;;;;;-143.48;85.57;118439.88;5055666;28;20028;-69
2022/12/27 02:18:16;;;;;;;8.65;1.80;;;;;;;-143.48;85.77;118439.88;5055561;28;20468;-69
2022/12/27 02:21:11;;;;;;;9.93;2.15;;;;;;;-143.48;85.99;118439.88;5037859;28;20025;-70
2022/12/27 02:24:01;;;;;;;16.42;2.00;;;;;;;-143.48;85.72;118439.88;5048436;28;20476;-69
2022/12/27 02:26:45;;;;;;;8.55;1.90;;;;;;;-143.48;86.20;118439.88;5055277;28;20102;-69
2022/12/27 02:29:22;;;;;;;14.18;2.08;;;;;;;-143.48;86.17;118439.88;5037533;28;20040;-69
2022/12/27 02:31:54;;;;;;;10.50;1.90;;;;;;;-143.48;86.37;118439.88;5055482;28;20025;-69
2022/12/27 02:34:26;;;;;;;8.30;1.70;;;;;;;-143.48;85.72;118439.88;5055642;28;20048;-69
2022/12/27 02:36:57;;;;;;;14.85;2.05;;;;;;;-143.48;85.80;118439.88;5055368;28;20029;-70
2022/12/27 02:39:25;;;;;;;6.82;2.00;;;;;;;-143.48;86.06;118439.88;5037484;28;20029;-69
2022/12/27 02:53:10;;;;;;;10.95;2.42;;;;;;;-143.48;87.40;118439.88;5055611;28;20126;-69
2022/12/27 02:59:24;;;;;;;12.07;2.72;;;;;;;-143.48;87.76;118439.88;5054935;28;20514;-69
2022/12/27 03:04:58;;;;;;;12.48;2.97;;;;;;;-143.48;88.62;118439.88;5055048;28;20396;-69
2022/12/27 03:07:36;;;;;;;11.80;2.42;;;;;;;-143.48;88.38;118439.88;5054817;28;20031;-69
2022/12/27 03:16:32;;;;;;;12.82;3.03;;;;;;;-143.48;88.17;118439.88;5054904;28;20040;-69
2022/12/27 03:19:11;;;;;;;12.63;2.60;;;;;;;-143.48;88.63;118439.88;5054736;28;20028;-69
2022/12/27 03:27:43;;;;;;;11.10;2.50;;;;;;;-143.48;88.06;118439.88;5054390;28;20511;-69
2022/12/27 03:33:13;;;;;;;14.18;3.63;;;;;;;-143.48;88.04;118439.88;5054513;28;20174;-69
2022/12/27 03:39:04;;;;;;;18.02;2.83;;;;;;;-143.48;89.10;118439.88;5054430;28;20116;-70
2022/12/27 03:44:24;;;;;;;14.00;2.90;;;;;;;-143.48;88.72;118439.88;5054164;28;20032;-70
2022/12/27 03:46:58;;;;;;;19.75;2.80;;;;;;;-143.48;88.92;118439.88;5036140;28;20075;-70
2022/12/27 03:49:31;;;;;;;12.43;2.72;;;;;;;-143.48;88.77;118439.88;5036197;28;20025;-70
2022/12/27 03:52:18;;;;;;;11.52;2.50;;;;;;;-143.48;89.17;118439.88;5036137;28;20128;-69
2022/12/27 03:54:48;;;;;;;11.93;2.65;;;;;;;-143.48;89.27;118439.88;5053818;28;20025;-69
2022/12/27 03:57:19;;;;;;;12.10;2.40;;;;;;;-143.48;89.02;118439.88;5053923;28;20020;-69
2022/12/27 03:59:45;;;;;;;12.93;2.58;;;;;;;-143.48;89.50;118439.88;5054020;28;20032;-70
2022/12/27 04:02:11;;;;;;;12.35;3.05;;;;;;;-143.48;89.64;118439.88;5053877;28;20396;-69
2022/12/27 04:04:37;;;;;;;12.13;2.70;;;;;;;-143.48;89.56;118439.88;5053741;28;20353;-70
2022/12/27 04:07:03;;;;;;;12.10;2.67;;;;;;;-143.48;89.63;118439.88;5053721;28;20435;-69
2022/12/27 04:36:48;;;;;;;13.10;2.58;;;;;;;-143.48;89.10;118439.88;5053718;28;20036;-69
2022/12/27 04:39:14;;;;;;;13.45;2.90;;;;;;;-143.48;88.81;118439.88;5053500;28;20025;-69
2022/12/27 04:55:33;;;;;;;24.42;3.53;;;;;;;-143.48;88.80;118439.88;5022181;28;20392;-69
2022/12/27 04:57:58;;;;;;;12.25;2.40;;;;;;;-143.48;87.88;118439.88;5035215;28;20036;-70
2022/12/27 05:03:22;;;;;;;15.23;2.38;;;;;;;-143.48;88.30;118439.88;5053355;28;20507;-69
2022/12/27 05:05:49;;;;;;;17.33;2.65;;;;;;;-143.48;87.72;118439.88;5053432;28;20028;-69
2022/12/27 05:14:00;;;;;;;19.77;3.03;;;;;;;-143.48;87.05;118439.88;5053334;28;20388;-70
2022/12/27 05:16:30;;;;;;;12.60;2.67;;;;;;;-143.48;87.18;118439.88;5052999;28;20408;-70
2022/12/27 05:18:56;;;;;;;14.68;2.60;;;;;;;-143.48;87.37;118439.88;5053181;28;20029;-70
2022/12/27 05:21:22;;;;;;;15.32;2.80;;;;;;;-143.48;87.04;118439.88;5035122;28;20033;-70
2022/12/27 05:26:32;;;;;;;17.10;2.60;;;;;;;-143.48;87.21;118439.88;5052792;28;20534;-69
2022/12/27 05:28:58;;;;;;;13.63;2.35;;;;;;;-143.48;86.55;118439.88;5052872;28;20104;-70
2022/12/27 05:31:25;;;;;;;12.45;2.35;;;;;;;-143.48;86.21;118439.88;5052941;28;20068;-71
2022/12/27 05:33:52;;;;;;;10.73;2.72;;;;;;;-143.48;86.30;118439.88;5052797;28;20108;-70
2022/12/27 05:36:18;;;;;;;11.13;2.60;;;;;;;-143.48;86.57;118439.88;5034991;28;20029;-70
2022/12/27 05:38:43;;;;;;;10.13;2.58;;;;;;;-143.48;86.35;118439.88;5052799;28;20032;-70
2022/12/27 05:41:08;;;;;;;12.13;2.50;;;;;;;-143.48;86.12;118439.88;5053230;28;20029;-70
2022/12/27 05:43:34;;;;;;;12.30;2.50;;;;;;;-143.48;86.40;118439.88;5056425;28;20380;-70
2022/12/27 05:46:17;;;;;;;17.77;2.92;;;;;;;-143.48;86.15;118439.88;5038314;28;20036;-70
2022/12/27 05:48:43;;;;;;;;;;;;;;;-143.48;85.19;118439.88;5056457;28;20040;-70
2022/12/27 05:51:14;;;;;;;18.83;2.80;;;;;;;-143.48;86.11;118439.88;5038490;28;19908;-70
2022/12/27 05:53:40;;;;;;;9.68;2.20;;;;;;;-143.48;85.67;118439.88;5056260;28;20164;-70
2022/12/27 05:56:06;;;;;;;16.13;2.58;;;;;;;-143.48;85.42;118439.88;5056095;28;20496;-70
2022/12/27 05:58:31;;;;;;;11.80;2.22;;;;;;;-143.48;86.13;118439.88;5056038;28;20032;-70
2022/12/27 06:00:58;;;;;;;13.13;2.60;;;;;;;-143.48;86.12;118439.88;5056159;28;20376;-70
2022/12/27 06:03:23;;;;;;;10.82;2.30;;;;;;;-143.48;85.86;118439.88;5055984;28;20024;-70
2022/12/27 06:05:49;;;;;;;14.00;2.50;;;;;;;-143.48;86.90;118439.88;5055889;28;20021;-69
2022/12/27 06:08:14;;;;;;;11.98;2.33;;;;;;;-143.48;86.83;118439.88;5055887;28;20599;-70
2022/12/27 06:10:40;;;;;;;13.75;2.15;;;;;;;-143.48;87.24;118439.88;5055973;28;20029;-70
2022/12/27 06:13:05;;;;;;;14.07;2.38;;;;;;;-143.48;86.96;118439.88;5055779;28;20103;-70
2022/12/27 06:15:30;;;;;;;10.65;2.30;;;;;;;-143.48;87.16;118439.88;5038083;28;20498;-70
2022/12/27 06:17:57;;;;;;;11.07;2.60;;;;;;;-143.48;86.77;118439.88;5038125;28;20404;-70
2022/12/27 06:20:22;;;;;;;12.60;2.60;;;;;;;-143.48;87.35;118439.88;5055450;28;20391;-70
2022/12/27 06:22:51;;;;;;;14.30;3.05;;;;;;;-143.48;87.10;118439.88;5055704;28;20108;-70
2022/12/27 06:25:16;;;;;;;10.80;2.63;;;;;;;-143.48;86.94;118439.88;5055544;28;20384;-70
2022/12/27 06:27:42;;;;;;;13.82;2.83;;;;;;;-143.48;87.16;118439.88;5055561;28;20025;-69
2022/12/27 06:30:09;;;;;;;13.07;2.97;;;;;;;-143.48;87.30;118439.88;5037546;28;20031;-72
2022/12/27 06:32:34;;;;;;;19.63;3.15;;;;;;;-143.48;87.76;118439.88;5055416;28;20389;-70
2022/12/27 06:35:00;;;;;;;14.07;2.45;;;;;;;-143.48;87.26;118439.88;5055550;28;20021;-70
2022/12/27 06:37:25;;;;;;;13.35;2.55;;;;;;;-143.48;86.77;118439.88;5055582;28;20491;-70
2022/12/27 06:39:50;;;;;;;17.10;2.70;;;;;;;-143.48;86.83;118439.88;5055373;28;20060;-70
2022/12/27 06:42:16;;;;;;;15.27;2.60;;;;;;;-143.48;86.96;118439.88;5055184;28;20045;-70
2022/12/27 06:44:41;;;;;;;17.98;3.42;;;;;;;-143.48;87.75;118439.88;5055540;28;20083;-69
2022/12/27 06:47:06;;;;;;;19.52;3.47;;;;;;;-143.48;87.03;118439.88;5054970;28;20545;-69
2022/12/27 06:49:32;;;;;;;16.38;2.67;;;;;;;-143.48;88.04;118439.88;5055359;28;20025;-69
2022/12/27 06:51:57;;;;;;;14.98;2.67;;;;;;;-143.48;87.57;118439.88;5036805;28;20069;-70
2022/12/27 06:54:22;;;;;;;12.88;2.53;;;;;;;-143.48;87.60;118439.88;5054839;28;20029;-69
2022/12/27 06:56:47;;;;;;;11.45;2.88;;;;;;;-143.48;87.91;118439.88;5055105;28;20024;-69
2022/12/27 06:59:13;;;;;;;15.02;2.42;;;;;;;-143.48;87.38;118439.88;5054952;28;20512;-69
2022/12/27 07:01:38;;;;;;;13.52;2.50;;;;;;;-143.48;87.49;118439.88;5054767;28;20370;-68
2022/12/27 07:04:04;;;;;;;8.65;2.50;;;;;;;-143.48;87.51;118439.88;5054901;28;20025;-69
2022/12/27 07:06:30;;;;;;;10.18;2.33;;;;;;;-143.48;87.51;118439.88;5036698;28;20028;-69
2022/12/27 07:08:56;;;;;;;17.80;2.65;;;;;;;-143.48;87.56;118439.88;5054745;28;20025;-69
2022/12/27 07:11:23;;;;;;;14.55;2.40;;;;;;;-143.48;87.90;118439.88;5054629;28;20484;-69
2022/12/27 07:13:51;;;;;;;20.95;2.47;;;;;;;-143.48;87.43;118439.88;5054424;28;20079;-69
2022/12/27 07:16:22;;;;;;;13.73;2.50;;;;;;;-143.48;87.63;118439.88;5054397;28;20111;-69
2022/12/27 07:18:48;;;;;;;12.10;2.50;;;;;;;-143.48;87.52;118439.88;5036381;28;20029;-69
2022/12/27 07:21:18;;;;;;;11.32;2.63;;;;;;;-143.48;87.21;118439.88;5054408;28;20051;-69
2022/12/27 07:23:44;;;;;;;20.25;3.25;;;;;;;-143.48;87.38;118439.88;5054305;28;20013;-69
2022/12/27 07:26:15;;;;;;;13.20;2.88;;;;;;;-143.48;87.88;118439.88;5053969;28;20531;-69
2022/12/27 07:28:40;;;;;;;15.45;2.85;;;;;;;-143.48;88.25;118439.88;5054482;28;20031;-69
2022/12/27 07:31:17;;;;;;;13.70;2.60;;;;;;;-143.48;87.51;118439.88;5036320;28;20033;-69
2022/12/27 07:33:44;;;;;;;11.48;2.75;;;;;;;-143.48;87.45;118439.88;5054341;28;20029;-69
2022/12/27 07:36:16;;;;;;;15.50;2.38;;;;;;;-143.48;87.50;118439.88;5054100;28;20025;-69
2022/12/27 07:38:41;;;;;;;18.45;2.97;;;;;;;-143.48;87.21;118439.88;5054061;28;20028;-69
2022/12/27 07:41:07;;;;;;;10.45;2.30;;;;;;;-143.48;87.55;118439.88;5054210;28;20020;-69
2022/12/27 07:43:33;;;;;;;15.07;2.75;;;;;;;-143.48;87.39;118439.88;5054027;28;20469;-69
2022/12/27 07:46:07;;;;;;;12.05;2.88;;;;;;;-143.48;87.34;118439.88;5053974;28;20075;-69
2022/12/27 07:48:32;;;;;;;19.60;2.67;;;;;;;-143.48;87.65;118439.88;5053879;28;20032;-69
2022/12/27 07:50:58;;;;;;;15.30;2.60;;;;;;;-143.48;86.87;118439.88;5053955;28;20364;-69
2022/12/27 07:53:23;;;;;;;16.05;2.75;;;;;;;-143.48;86.60;118439.88;5053886;28;20031;-69
2022/12/27 07:55:49;;;;;;;11.05;2.22;;;;;;;-143.48;86.82;118439.88;5053896;28;20048;-69
2022/12/27 07:58:16;;;;;;;14.50;2.80;;;;;;;-143.48;87.16;118439.88;5035984;28;20056;-69
2022/12/27 08:00:41;;;;;;;11.93;2.35;;;;;;;-143.48;86.81;118439.88;5054256;28;20055;-69
2022/12/27 08:03:07;;;;;;;14.05;2.42;;;;;;;-143.48;86.84;118439.88;5035346;28;20064;-69
2022/12/27 08:05:33;;;;;;;11.80;2.55;;;;;;;-143.48;87.63;118439.88;5054169;28;20024;-70
2022/12/27 08:08:01;;;;;;;17.45;2.78;;;;;;;-143.48;86.87;118439.88;5055090;28;20099;-70
2022/12/27 08:10:28;;;;;;;12.02;2.10;;;;;;;-143.48;85.99;118439.88;5035547;28;20029;-70
2022/12/27 08:12:54;;;;;;;9.98;2.25;;;;;;;-143.48;86.41;118439.88;5053302;28;20120;-70
2022/12/27 08:15:20;;;;;;;15.30;2.40;;;;;;;-143.48;86.37;118439.88;5053306;28;20107;-70
2022/12/27 08:17:45;;;;;;;12.02;2.25;;;;;;;-143.48;86.69;118439.88;5053371;28;20025;-70
2022/12/27 08:20:13;;;;;;;16.42;3.17;;;;;;;-143.48;86.59;118439.88;5053681;28;20401;-70
2022/12/27 08:22:39;;;;;;;19.42;4.05;;;;;;;-143.48;87.42;118439.88;5053786;28;20021;-71
2022/12/27 08:25:05;;;;;;;14.27;4.22;;;;;;;-143.48;86.46;118439.88;5053617;28;20235;-70
2022/12/27 08:27:30;;;;;;;17.90;4.50;;;;;;;-143.48;87.08;118439.88;5035723;28;20036;-69
2022/12/27 08:29:55;;;;;;;13.85;4.65;;;;;;;-143.48;86.98;118439.88;5053702;28;20019;-69
2022/12/27 08:32:21;;;;;;;22.10;4.60;;;;;;;-143.48;86.79;118439.88;5053536;28;20025;-69
2022/12/27 08:34:46;;;;;;;16.80;4.20;;;;;;;-143.48;86.60;118439.88;5053335;28;20036;-69
2022/12/27 08:37:12;;;;;;;9.70;3.00;;;;;;;-143.48;86.66;118439.88;5053582;28;20032;-69
2022/12/27 08:39:37;;;;;;;20.75;3.20;;;;;;;-143.48;86.58;118439.88;5053480;28;20379;-69
2022/12/27 08:42:03;;;;;;;14.57;2.90;;;;;;;-143.48;87.64;118439.88;5053332;28;20020;-69
2022/12/27 08:44:28;;;;;;;14.40;3.10;;;;;;;-143.48;87.09;118439.88;5053016;28;20016;-69
2022/12/27 08:46:53;;;;;;;14.90;2.80;;;;;;;-143.48;87.08;118439.88;5053289;28;20052;-69
2022/12/27 08:49:18;;;;;;;17.10;3.08;;;;;;;-143.48;87.80;118439.88;5053336;28;20021;-69
2022/12/27 08:51:44;;;;;;;13.90;3.40;;;;;;;-143.48;86.95;118439.88;5053195;28;20036;-69
2022/12/27 08:54:09;;;;;;;15.52;2.80;;;;;;;-143.48;87.70;118439.88;5053221;28;20025;-69
2022/12/27 08:56:35;;;;;;;16.58;2.80;;;;;;;-143.48;87.38;118439.88;5053016;28;20048;-69
2022/12/27 08:59:00;;;;;;;15.82;2.70;;;;;;;-143.48;86.82;118439.88;5035454;28;20043;-69
2022/12/27 09:01:25;;;;;;;16.25;3.05;;;;;;;-143.48;87.47;118439.88;5053126;28;20017;-69
2022/12/27 09:03:51;;;;;;;9.82;2.75;;;;;;;-143.48;86.55;118439.88;5053016;28;20091;-69
2022/12/27 09:06:19;;;;;;;12.38;3.25;;;;;;;-143.48;86.83;118439.88;5053260;28;20029;-69
2022/12/27 09:08:46;;;;;;;14.40;3.13;;;;;;;-143.48;86.74;118439.88;5053101;28;20098;-69
2022/12/27 09:11:19;;;;;;;15.52;3.33;;;;;;;-143.48;86.96;118439.88;5053123;28;20033;-69
2022/12/27 09:13:45;;;;;;;17.70;3.47;;;;;;;-143.48;86.94;118439.88;5052989;28;20100;-69
2022/12/27 09:16:15;;;;;;;15.02;3.30;;;;;;;-143.48;86.59;118439.88;5055157;28;20056;-69
2022/12/27 09:18:41;;;;;;;13.52;3.33;;;;;;;-143.48;87.20;118439.88;5056885;28;20059;-69
2022/12/27 09:21:12;;;;;;;15.02;3.00;;;;;;;-143.48;86.40;118439.88;5056700;28;20124;-69
2022/12/27 09:23:38;;;;;;;12.20;3.15;;;;;;;-143.48;86.48;118439.88;5056808;28;20096;-69
2022/12/27 09:26:09;;;;;;;14.15;3.15;;;;;;;-143.48;86.55;118439.88;5056556;28;20084;-69
2022/12/27 09:28:34;;;;;;;19.20;3.40;;;;;;;-143.48;86.39;118439.88;5056760;28;20029;-69
2022/12/27 09:31:03;;;;;;;13.18;2.92;;;;;;;-143.48;85.95;118439.88;5056643;28;20035;-69
2022/12/27 09:33:30;;;;;;;17.35;3.40;;;;;;;-143.48;86.04;118439.88;5055411;28;20028;-69
2022/12/27 09:36:03;;;;;;;15.20;3.08;;;;;;;-143.48;84.66;118439.88;5056446;28;20024;-69
2022/12/27 09:38:28;;;;;;;16.25;3.28;;;;;;;-143.48;85.54;118439.88;5056461;28;20419;-69
2022/12/27 09:40:56;;;;;;;16.33;3.88;;;;;;;-143.48;85.12;118439.88;5056646;28;20074;-70
2022/12/27 09:43:34;;;;;;;13.32;3.22;;;;;;;-143.48;84.12;118439.88;5038593;28;20033;-69
2022/12/27 09:46:00;;;;;;;12.88;3.33;;;;;;;-143.48;83.64;118439.88;5056161;28;20031;-69
2022/12/27 09:48:31;;;;;;;15.98;3.40;;;;;;;-143.48;83.97;118439.88;5056388;28;20114;-69
2022/12/27 09:51:07;;;;;;;11.98;3.63;;;;;;;-143.48;84.75;118439.88;5056011;28;20492;-69
2022/12/27 09:54:13;;;;;;;12.35;3.30;;;;;;;-143.48;84.45;118439.88;5038233;28;20475;-69
2022/12/27 09:56:40;;;;;;;9.85;3.75;;;;;;;-143.48;84.29;118439.88;5030380;28;20511;-69
2022/12/27 09:59:27;;;;;;;10.45;3.90;;;;;;;-143.48;83.88;118439.88;5055895;28;20028;-69
2022/12/27 10:01:52;;;;;;;13.15;3.78;;;;;;;-143.48;83.24;118439.88;5055824;28;20032;-69
2022/12/27 10:04:18;;;;;;;18.42;3.97;;;;;;;-143.48;83.30;118439.88;5056055;28;20013;-69
2022/12/27 10:06:49;;;;;;;12.02;3.53;;;;;;;-143.48;82.91;118439.88;5055767;28;20025;-69
2022/12/27 10:09:48;;;;;;;13.65;4.53;;;;;;;-143.48;80.80;118439.88;5055975;28;20025;-69
2022/12/27 10:12:45;;;;;;;13.52;4.15;;;;;;;-143.48;64.22;118439.88;5054316;28;20024;-69
2022/12/27 10:15:17;;;;;;;12.85;3.33;;;;;;;-143.48;60.24;118439.88;5055594;28;20477;-69
2022/12/27 10:17:42;;;;;;;11.05;3.92;;;;;;;-143.48;54.92;118439.88;5055489;28;20456;-69
2022/12/27 10:20:41;;;;;;;17.95;3.95;;;;;;;-143.48;53.34;118439.88;5055492;28;20083;-70
2022/12/27 10:23:14;;;;;;;10.05;3.47;;;;;;;-143.48;52.32;118439.88;5055486;28;20021;-70
2022/12/27 10:25:40;;;;;;;12.38;3.90;;;;;;;-143.48;51.76;118439.88;5055432;28;20045;-70
2022/12/27 10:28:16;;;;;;;11.30;3.55;;;;;;;-143.48;50.74;118439.88;5054632;28;20047;-70
2022/12/27 10:30:43;;;;;;;14.43;3.92;;;;;;;-143.48;49.65;118439.88;5055479;28;20032;-70
2022/12/27 10:33:20;;;;;;;10.95;3.40;;;;;;;-143.48;51.09;118439.88;5055536;28;20029;-70
2022/12/27 10:35:47;;;;;;;13.05;3.95;;;;;;;-143.48;50.35;118439.88;5055724;28;20025;-70
2022/12/27 10:38:13;;;;;;;10.63;3.83;;;;;;;-143.48;49.10;118439.88;5055262;28;20056;-70
2022/12/27 10:40:56;;;;;;;13.07;3.72;;;;;;;-143.48;48.04;118439.88;5055328;28;20021;-70
2022/12/27 10:43:24;;;;;;;;;;;;;;;-143.48;60.46;118439.88;5055783;28;20035;-70
2022/12/27 10:45:49;;;;;;;14.98;4.20;;;;;;;-143.48;70.10;118439.88;5055239;28;19908;-70
2022/12/27 10:48:17;;;;;;;12.65;4.28;;;;;;;-143.48;71.84;118439.88;5055180;28;20021;-70
2022/12/27 10:50:45;;;;;;;13.43;4.30;;;;;;;-143.48;71.42;118439.88;5055020;28;20039;-70
2022/12/27 10:53:32;;;;;;;12.27;4.13;;;;;;;-143.48;74.46;118439.88;5055095;28;20477;-70
2022/12/27 10:56:12;;;;;;;12.20;3.90;;;;;;;-143.48;75.10;118439.88;5055181;28;20064;-69
2022/12/27 10:58:45;;;;;;;14.27;3.83;;;;;;;-143.48;77.62;118439.88;5054841;28;20032;-69
2022/12/27 11:01:25;;;;;;;10.93;4.20;;;;;;;-143.48;78.51;118439.88;5054926;28;20074;-69
2022/12/27 11:04:06;;;;;;;12.25;4.35;;;;;;;-143.48;77.93;118439.88;5038154;28;20460;-69
2022/12/27 11:06:32;;;;;;;14.43;4.45;;;;;;;-143.48;77.64;118439.88;5053811;28;20059;-69
2022/12/27 11:08:57;;;;;;;11.60;4.60;;;;;;;-143.48;79.30;118439.88;5036796;28;20028;-70
2022/12/27 11:11:25;;;;;;;18.35;5.00;;;;;;;-143.48;79.23;118439.88;5053528;28;20032;-69
2022/12/27 11:13:51;;;;;;;17.35;4.45;;;;;;;-143.48;80.52;118439.88;5054142;28;20025;-69
2022/12/27 11:16:33;;;;;;;17.58;5.22;;;;;;;-143.48;80.03;118439.88;5054577;28;20356;-69
2022/12/27 11:19:00;;;;;;;39.63;14.05;;;;;;;-143.48;80.32;118439.88;5036490;28;20383;-69
2022/12/27 11:21:28;;;;;;;22.20;5.70;;;;;;;-143.48;80.67;118439.88;5054737;28;20114;-69
2022/12/27 11:24:01;;;;;;;15.55;4.72;;;;;;;-143.48;80.74;118439.88;5054314;28;20147;-69
2022/12/27 11:26:40;;;;;;;18.77;6.10;;;;;;;-143.48;79.91;118439.88;5054252;28;20048;-69
2022/12/27 11:29:12;;;;;;;18.60;7.43;;;;;;;-143.48;80.97;118439.88;5053842;28;20025;-69
2022/12/27 11:31:43;;;;;;;9.32;4.47;;;;;;;-143.48;80.27;118439.88;5054451;28;20476;-69
2022/12/27 11:34:25;;;;;;;13.65;4.93;;;;;;;-143.48;79.61;118439.88;5035894;28;20021;-69
2022/12/27 11:36:53;;;;;;;15.52;4.88;;;;;;;-143.48;80.69;118439.88;5036679;28;20078;-69
2022/12/27 11:39:38;;;;;;;20.10;5.13;;;;;;;-143.48;78.80;118439.88;5054243;28;20025;-69
2022/12/27 11:42:31;;;;;;;13.98;4.95;;;;;;;-143.48;77.48;118439.88;5054238;28;20028;-69
2022/12/27 11:45:04;;;;;;;16.40;5.25;;;;;;;-143.48;78.59;118439.88;5053451;28;20017;-69
2022/12/27 11:47:30;;;;;;;;;;;;;;;-143.48;80.40;118439.88;5036457;28;20400;-69
2022/12/27 11:50:11;;;;;;;13.98;4.57;;;;;;;-143.48;80.79;118439.88;5054024;28;19908;-69
2022/12/27 11:52:59;;;;;;;11.95;4.22;;;;;;;-143.48;81.22;118439.88;5053939;28;20170;-69
2022/12/27 11:55:42;;;;;;;14.82;4.28;;;;;;;-143.48;80.48;118439.88;5053974;28;20025;-69
2022/12/27 11:58:17;;;;;;;15.38;4.80;;;;;;;-143.48;80.49;118439.88;5053995;28;20033;-70
2022/12/27 12:01:00;;;;;;;15.65;4.47;;;;;;;-143.48;80.79;118439.88;5053829;28;20032;-70
2022/12/27 12:03:43;;;;;;;15.95;4.78;;;;;;;-143.48;81.14;118439.88;5053849;28;20029;-69
2022/12/27 12:06:22;;;;;;;14.63;5.03;;;;;;;-143.48;81.38;118439.88;5053886;28;20021;-69
2022/12/27 12:09:05;;;;;;;16.88;5.07;;;;;;;-143.48;79.92;118439.88;5053649;28;20036;-69
2022/12/27 12:11:39;;;;;;;;;;;;;;;-143.48;80.42;118439.88;5054337;28;20025;-69
2022/12/27 12:14:32;;;;;;;11.05;4.53;;;;;;;-143.48;79.58;118439.88;5053706;28;19916;-69
2022/12/27 12:17:33;;;;;;;23.23;5.32;;;;;;;-143.48;80.05;118439.88;5053706;28;20070;-69
2022/12/27 12:20:17;;;;;;;16.58;5.35;;;;;;;-143.48;80.53;118439.88;5053629;28;20024;-68
2022/12/27 12:23:07;;;;;;;19.85;5.43;;;;;;;-143.48;79.83;118439.88;5053560;28;20055;-69
2022/12/27 12:26:02;;;;;;;14.20;5.10;;;;;;;-143.48;79.96;118439.88;5053382;28;20045;-68
2022/12/27 12:28:58;;;;;;;19.75;5.95;;;;;;;-143.48;79.60;118439.88;5053476;28;20078;-68
2022/12/27 12:31:52;;;;;;;15.43;5.13;;;;;;;-143.48;79.34;118439.88;5053436;28;20464;-69
2022/12/27 12:34:29;;;;;;;11.95;5.05;;;;;;;-143.48;80.21;118439.88;5053479;28;20040;-69
2022/12/27 12:37:14;;;;;;;13.85;4.88;;;;;;;-143.48;80.19;118439.88;5035350;28;20021;-68
2022/12/27 12:40:07;;;;;;;16.45;5.25;;;;;;;-143.48;79.76;118439.88;5053359;28;20147;-69
2022/12/27 12:43:28;;;;;;;16.20;4.70;;;;;;;-143.48;79.59;118439.88;5053377;28;20103;-68
2022/12/27 12:46:03;;;;;;;16.92;4.82;;;;;;;-143.48;79.17;118439.88;5048557;28;20040;-69
2022/12/27 12:48:55;;;;;;;18.98;5.22;;;;;;;-143.48;80.20;118439.88;5053520;28;20028;-69
2022/12/27 12:51:40;;;;;;;15.52;5.72;;;;;;;-143.48;80.63;118439.88;5056022;28;20025;-68
2022/12/27 12:54:23;;;;;;;13.88;5.28;;;;;;;-143.48;80.95;118439.88;5057040;28;20029;-68
2022/12/27 12:57:23;;;;;;;10.90;5.00;;;;;;;-143.48;80.85;118439.88;5057138;28;20025;-69